Aérodrome :
LOGIN :

S'inscrire | Disclaimer

   EN    FR    IT 

 










Légende :    VFR   VFR Marginal   IFR   IFR Intensif   IFR Très Intensif
Visi : 
Plafond : 
>= 8 km
>= 3000ft
5 à 8 km
1000 à 3000 ft
1500m à 5 km
500 à 1000 ft
800 à 1500m
200 à 500 ft
< 800m
< 200 ft
Symboles :   Orages  Brouillard  Fortes neiges  Fortes précipitations  Vent > 20 kt
SIGMETs :   Divers  Orages  Givrage  Turbulence  Onde Orograph.  Cendres Volcan.






- Altitude de l'aérodrome : 779 ft
- Code IATA : CMF


LFLB - Chambery / Aix-Les-Bains

DERNIER METAR :
  • 061600Z AUTO 33010KT 9999 BKN066 24/10 Q1018 NOSIG

METARs EXPIRÉS :
  • 061530Z AUTO 33010KT 270V010 9999 SCT068 SCT220 26/12 Q1018 NOSIG
  • 061500Z AUTO 34010KT 300V020 9999 BKN064 BKN074 26/13 Q1018 NOSIG
  • 061430Z AUTO 01008KT 290V050 9999 BKN060 26/13 Q1018 NOSIG
  • 061400Z AUTO 33009KT 290V350 9999 BKN056 26/13 Q1018 NOSIG
  • 061330Z AUTO 35010KT 9999 SCT056 25/14 Q1018 NOSIG

TAF TAF LFLB
Valide du 06 à 12h jusqu'au 07 à 12h UTC


061100Z 0612/0712 01011KT 9999 BKN045
BECMG 0612/0614 CAVOK



MET'MAP, la Météo Aéronautique d'un coup d'oeil ! - Copyright ORBIFLY Décembre 2007 - Disclaimer

ORBIFLY MET'MAP TEAM :

Programmation & Développement : Alexandra Zaïnal
Sur une idée originale de : Baudouin d'Aumeries
Assistance à la programmation : Marc-Olivier Méhu
Soutien technique & logistique : Manuel Goepfert

Contact : metmap@orbifly.com




SOURCES & CREDITS :

   NOAA